Latest Coastal Weather Observations for Warruwi

IDD60701

Issued at 9:11 pm CST Monday 26 February 2024 (issued every 10 minutes, with the page automatically refreshed every 10 minutes)

About coastal observations | Map of coastal stations | Coastal observations for NT | Marine services | Other Formats
Station Details ID: 014401 Name: WARRUWI AIRPORT Lat: -11.65 Lon: 133.38 Height: 19.2 m
Data from the previous 72 hours. | See also: Recent months at Warruwi
Date/Time
CST
Wind Sea
Height
m
Swell Vis
km
Cloud Weather Temp
°C
Press
MSL
hPa
Rain since
9am
mm
Dir  Spd
kts
Gust
kts
Height
m
Period
s
Dir
26/09:00pm S 3 5 - - - - - - - 28.0 1007.1 0.0
26/08:30pm SSW 4 8 - - - - - - - 28.2 1006.7 0.0
26/08:00pm SSW 4 8 - - - - - - - 28.3 1006.4 0.0
26/07:30pm SSW 3 7 - - - - - - - 28.4 1006.1 0.0
26/07:00pm S 3 6 - - - - - - - 28.5 1006.0 0.0
26/06:30pm SSW 4 9 - - - - - - - 29.0 1005.5 0.0
26/06:00pm SSW 4 7 - - - - - - - 29.7 1005.6 0.0
26/05:30pm WNW 5 11 - - - - - - - 30.1 1005.5 0.0
26/05:00pm WNW 6 10 - - - - - - - 29.8 1005.3 0.0
26/04:30pm NW 5 10 - - - - - - - 29.8 1005.4 0.0
26/04:00pm SE 5 10 - - - - - - - 29.6 1005.2 0.0
26/03:30pm SW 4 11 - - - - - - - 29.4 1005.1 0.0
26/03:00pm WSW 5 8 - - - - - - - 29.3 1005.5 0.0
26/02:30pm S 3 8 - - - - - - - 29.6 1005.6 0.0
26/02:00pm SSW 3 7 - - - - - - - 29.8 1006.1 0.0
26/01:30pm SSE 4 8 - - - - - - - 30.3 1006.6 0.0
26/01:00pm SW 5 8 - - - - - - - 30.6 1006.8 0.0
26/12:30pm SW 6 9 - - - - - - - 30.0 1007.2 0.0
26/12:00pm WSW 7 11 - - - - - - - 29.9 1007.7 0.0
26/11:30am SSW 5 8 - - - - - - - 29.9 1008.0 0.0
26/11:00am SSW 4 7 - - - - - - - 29.2 1008.1 0.0
26/10:30am SSW 5 7 - - - - - - - 28.1 1008.3 0.0
26/10:00am SW 6 9 - - - - - - - 27.6 1008.4 0.0
26/09:30am SSW 3 6 - - - - - - - 27.9 1008.1 0.0
26/09:00am S 1 2 - - - - - - - 27.0 1008.0 43.4
26/08:30am CALM 0 1 - - - - - - - 26.0 1007.8 43.4
26/08:00am CALM 0 0 - - - - - - - 25.6 1007.5 43.4
26/07:30am CALM 0 0 - - - - - - - 25.1 1007.0 43.4
26/07:00am S 2 3 - - - - - - - 25.0 1006.7 43.4
26/06:30am S 1 2 - - - - - - - 25.1 1006.2 43.4
26/06:00am S 1 2 - - - - - - Rain 24.9 1006.2 43.4
26/05:30am S 1 2 - - - - - - - 24.8 1005.8 43.2
26/05:00am S 2 3 - - - - - - - 24.3 1005.9 42.6
26/04:30am S 2 6 - - - - - - - 24.7 1006.2 41.0
26/04:27am S 3 6 - - - - - - - 24.8 1006.1 40.8
26/04:17am SSW 3 8 - - - - - - - 25.1 1006.0 39.2
26/04:00am SSW 4 5 - - - - - - - 24.4 1006.1 29.8
26/03:57am SSW 4 5 - - - - - - - 24.3 1006.1 29.2
26/03:30am WSW 5 10 - - - - - - - 25.1 1006.3 20.4
26/03:05am S 3 7 - - - - - - - 26.6 1006.1 16.0
26/03:03am S 3 7 - - - - - - - 26.5 1006.1 16.0
26/03:00am S 3 7 - - - - - - Thunderstorm 26.3 1006.1 16.0
26/02:49am WSW 8 12 - - - - - - - 26.5 1006.2 15.8
26/02:40am WSW 9 12 - - - - - - - 26.6 1006.3 14.4
26/02:30am WSW 7 11 - - - - - - - 26.6 1006.3 10.2
26/02:00am W 9 17 - - - - - - - 27.2 1005.8 6.4
26/01:50am WSW 7 14 - - - - - - - 27.4 1005.8 6.2
26/01:40am SW 4 9 - - - - - - - 27.5 1006.1 3.4
26/01:30am SSW 4 8 - - - - - - - 27.4 1006.2 3.4
26/01:27am SW 5 12 - - - - - - - 27.4 1006.2 3.4
26/01:05am SSW 3 6 - - - - - - - 28.3 1006.5 0.0
26/01:00am SSW 3 6 - - - - - - - 28.2 1006.5 0.0
26/12:30am S 2 4 - - - - - - - 27.8 1006.8 0.0
26/12:00am CALM 0 2 - - - - - - - 27.9 1007.0 0.0
 
Date/Time
CST
Wind Sea
Height
m
Swell Vis
km
Cloud Weather Temp
°C
Press
MSL
hPa
Rain since
9am
mm
Dir  Spd
kts
Gust
kts
Height
m
Period
s
Dir
25/11:30pm CALM 0 1 - - - - - - - 27.8 1007.4 0.0
25/11:00pm SSE 1 2 - - - - - - - 27.8 1006.9 0.0
25/10:30pm CALM 0 0 - - - - - - - 27.7 1007.0 0.0
25/10:00pm CALM 0 0 - - - - - - - 27.7 1007.0 0.0
25/09:30pm CALM 0 2 - - - - - - - 27.8 1006.4 0.0
25/09:00pm CALM 0 0 - - - - - - - 28.0 1006.3 0.0
25/08:30pm CALM 0 0 - - - - - - - 28.3 1005.5 0.0
25/08:00pm CALM 0 0 - - - - - - - 28.4 1005.2 0.0
25/07:30pm CALM 0 0 - - - - - - - 28.6 1004.7 0.0
25/07:00pm S 2 4 - - - - - - - 28.8 1004.8 0.0
25/06:30pm S 2 5 - - - - - - - 29.1 1004.5 0.0
25/06:00pm S 3 5 - - - - - - - 29.6 1004.5 0.0
25/05:30pm SE 4 7 - - - - - - - 29.9 1004.4 0.0
25/05:00pm ENE 5 10 - - - - - - - 29.5 1004.0 0.0
25/04:30pm E 4 8 - - - - - - - 29.5 1004.1 0.0
25/04:00pm SSE 4 8 - - - - - - - 29.7 1003.9 0.0
25/03:30pm SE 5 10 - - - - - - - 30.1 1003.9 0.0
25/03:00pm ESE 4 7 - - - - - - - 30.3 1004.1 0.0
25/02:30pm SE 3 5 - - - - - - - 30.3 1004.0 0.0
25/02:00pm SSW 3 6 - - - - - - - 32.4 1004.2 0.0
25/01:30pm SSW 3 6 - - - - - - - 32.0 1004.4 0.0
25/01:00pm S 3 5 - - - - - - - 30.8 1005.0 0.0
25/12:30pm SW 5 9 - - - - - - - 31.0 1005.7 0.0
25/12:00pm SW 5 8 - - - - - - - 29.9 1006.5 0.0
25/11:30am S 3 5 - - - - - - - 29.9 1006.8 0.0
25/11:00am S 3 5 - - - - - - - 30.0 1006.8 0.0
25/10:30am SSE 2 4 - - - - - - - 30.0 1007.2 0.0
25/10:00am SSE 4 7 - - - - - - - 29.2 1006.9 0.0
25/09:30am SSE 4 7 - - - - - - - 27.9 1006.8 0.0
25/09:00am S 3 6 - - - - - - - 27.4 1006.9 21.4
25/08:30am S 3 6 - - - - - - - 27.7 1006.9 21.4
25/08:00am S 3 3 - - - - - - - 27.4 1006.9 21.4
25/07:30am S 2 2 - - - - - - - 26.7 1006.6 21.4
25/07:00am CALM 0 0 - - - - - - - 26.5 1006.2 21.4
25/06:30am S 1 2 - - - - - - - 26.5 1005.7 21.4
25/06:00am S 2 6 - - - - - - - 26.6 1005.4 21.4
25/05:30am CALM 0 0 - - - - - - - 26.7 1005.1 21.4
25/05:00am CALM 0 0 - - - - - - - 26.9 1005.1 21.4
25/04:30am S 3 4 - - - - - - - 27.1 1005.0 21.4
25/04:00am S 2 5 - - - - - - - 27.3 1005.2 21.4
25/03:30am CALM 0 0 - - - - - - - 27.0 1005.3 21.4
25/03:00am CALM 0 1 - - - - - - - 26.9 1005.2 21.4
25/02:30am S 2 4 - - - - - - - 27.3 1005.9 21.4
25/02:00am S 2 4 - - - - - - - 27.1 1005.8 21.4
25/01:30am S 2 5 - - - - - - - 27.1 1006.4 21.4
25/01:00am S 3 5 - - - - - - - 27.0 1007.4 21.4
25/12:30am S 1 3 - - - - - - - 26.6 1007.1 21.4
25/12:00am CALM 0 1 - - - - - - - 26.9 1007.8 21.4
 
Date/Time
CST
Wind Sea
Height
m
Swell Vis
km
Cloud Weather Temp
°C
Press
MSL
hPa
Rain since
9am
mm
Dir  Spd
kts
Gust
kts
Height
m
Period
s
Dir
24/11:30pm S 2 4 - - - - - - - 27.1 1008.0 21.4
24/11:00pm SW 4 7 - - - - - - - 27.1 1008.0 21.4
24/10:30pm SW 6 9 - - - - - - - 27.2 1008.0 21.2
24/10:00pm SW 5 8 - - - - - - - 27.2 1007.5 21.2
24/09:30pm S 2 4 - - - - - - - 27.0 1007.3 21.2
24/09:00pm SSW 5 8 - - - - - - - 27.1 1008.0 21.2
24/08:30pm S 7 15 - - - - - - - 26.9 1007.9 21.2
24/08:00pm SSW 7 13 - - - - - - - 26.7 1006.8 21.2
24/07:30pm SW 8 13 - - - - - - - 26.8 1006.0 21.2
24/07:00pm WSW 10 15 - - - - - - - 26.5 1006.0 21.2
24/06:30pm W 15 20 - - - - - - - 27.0 1006.1 21.0
24/06:06pm W 12 26 - - - - - - - 28.2 1005.7 21.0
24/06:00pm W 7 13 - - - - - - - 29.1 1005.7 21.0
24/05:30pm WSW 6 12 - - - - - - - 28.9 1004.4 21.0
24/05:00pm SW 5 10 - - - - - - - 28.8 1004.5 21.0
24/04:30pm SSW 4 7 - - - - - - - 28.6 1004.7 21.0
24/04:00pm SW 5 10 - - - - - - - 28.3 1005.0 21.0
24/03:30pm WSW 8 11 - - - - - - - 27.9 1004.9 21.0
24/03:00pm S 3 5 - - - - - - Recent precip. 26.9 1004.9 21.0
24/02:30pm SW 7 11 - - - - - - - 26.8 1005.9 21.0
24/02:00pm SSW 4 6 - - - - - - - 26.7 1006.1 20.8
24/01:30pm SW 6 10 - - - - - - - 26.1 1007.0 20.8
24/01:00pm SW 9 15 - - - - - - - 26.0 1007.4 16.0
24/12:30pm SSW 8 14 - - - - - - - 28.1 1007.4 0.0
24/12:00pm W 9 13 - - - - - - - 31.4 1007.5 0.0
24/11:30am WSW 9 14 - - - - - - - 32.4 1007.6 0.0
24/11:00am WSW 9 13 - - - - - - - 31.8 1008.0 0.0
24/10:30am WSW 7 13 - - - - - - - 31.1 1008.2 0.0
24/10:00am SW 5 9 - - - - - - - 30.4 1008.3 0.0
24/09:30am WSW 6 9 - - - - - - - 30.1 1008.6 0.0
24/09:00am SW 6 10 - - - - - - - 29.9 1008.7 0.0
24/08:30am SSW 4 7 - - - - - - - 28.8 1008.7 0.0
24/08:00am SW 5 8 - - - - - - - 28.5 1008.2 0.0
24/07:30am SSW 4 7 - - - - - - - 28.1 1007.8 0.0
24/07:00am S 3 5 - - - - - - - 27.6 1007.5 0.0
24/06:30am SW 7 10 - - - - - - - 27.4 1007.6 0.0
24/06:00am SW 7 9 - - - - - - - 27.1 1007.6 0.0
24/05:30am SSW 6 8 - - - - - - - 27.0 1007.7 0.0
24/05:00am WSW 12 20 - - - - - - - 27.9 1007.3 0.0
24/04:30am WSW 8 15 - - - - - - - 28.6 1006.9 0.0
24/04:00am WSW 7 11 - - - - - - - 28.4 1006.6 0.0
24/03:30am WSW 6 9 - - - - - - - 28.4 1007.0 0.0
24/03:00am S 3 4 - - - - - - - 28.1 1007.7 0.0
24/02:30am S 2 4 - - - - - - - 28.4 1007.6 0.0
24/02:00am SW 6 9 - - - - - - - 29.0 1007.9 0.0
24/01:30am SW 5 8 - - - - - - - 28.9 1008.0 0.0
24/01:00am SSW 3 6 - - - - - - - 28.9 1008.6 0.0
24/12:30am WSW 7 11 - - - - - - - 29.1 1009.1 0.0
24/12:00am SW 5 9 - - - - - - - 29.0 1009.6 0.0
 
Date/Time
CST
Wind Sea
Height
m
Swell Vis
km
Cloud Weather Temp
°C
Press
MSL
hPa
Rain since
9am
mm
Dir  Spd
kts
Gust
kts
Height
m
Period
s
Dir
23/11:30pm SSW 4 7 - - - - - - - 29.0 1009.6 0.0
23/11:00pm SW 7 13 - - - - - - - 28.9 1009.9 0.0
23/10:30pm W 9 14 - - - - - - - 29.3 1009.5 0.0
23/10:00pm SW 5 9 - - - - - - - 29.3 1009.8 0.0
23/09:30pm SW 5 9 - - - - - - - 29.3 1009.8 0.0

Other formats

Comma delimited format used in spreadsheet applications
http://www.bom.gov.au/fwo/IDD60701/IDD60701.94139.axf

JavaScript Object Notation format (JSON) in row-major order
http://www.bom.gov.au/fwo/IDD60701/IDD60701.94139.json

Data quality

Most of these data are generated automatically and are frequently updated. Quality checks on data are not normally performed. It is possible for incorrect values to appear. Refer to information at About Latest Weather Observations and please check the disclaimer before using these data.